createdAt,value
2018-04-16T00:01:07.877Z,15.50
2018-04-16T00:03:35.987Z,15.50
2018-04-16T00:06:04.901Z,15.40
2018-04-16T00:08:33.005Z,15.40
2018-04-16T00:11:01.155Z,15.30
2018-04-16T00:13:29.311Z,15.30
2018-04-16T00:15:57.419Z,15.20
2018-04-16T00:18:25.562Z,15.20
2018-04-16T00:20:53.683Z,15.10
2018-04-16T00:23:21.793Z,15.10
2018-04-16T00:25:50.786Z,15.00
2018-04-16T00:28:19.666Z,15.00
2018-04-16T00:30:48.582Z,15.00
2018-04-16T00:36:26.462Z,15.00
2018-04-16T00:39:00.255Z,14.90
2018-04-16T00:41:33.999Z,14.90
2018-04-16T00:44:08.633Z,14.80
2018-04-16T00:46:42.401Z,14.80
2018-04-16T00:49:16.327Z,14.70
2018-04-16T00:51:50.963Z,14.60
2018-04-16T00:54:25.457Z,14.50
2018-04-16T00:56:59.257Z,14.50
2018-04-16T00:59:33.010Z,14.50
2018-04-16T01:02:06.828Z,14.40
2018-04-16T01:04:40.554Z,14.40
2018-04-16T01:07:14.239Z,14.30
2018-04-16T01:09:47.976Z,14.20
2018-04-16T01:12:21.791Z,14.20
2018-04-16T01:15:05.611Z,14.10
2018-04-16T01:17:39.370Z,14.10
2018-04-16T01:20:13.286Z,14.00
2018-04-16T01:22:47.064Z,13.90
2018-04-16T01:25:21.592Z,13.90
2018-04-16T01:27:56.148Z,13.80
2018-04-16T01:30:30.436Z,13.80
2018-04-16T01:33:05.167Z,13.80
2018-04-16T01:35:39.741Z,13.70
2018-04-16T01:38:13.478Z,13.70
2018-04-16T01:40:47.231Z,13.70
2018-04-16T01:43:20.968Z,13.70
2018-04-16T01:45:54.885Z,13.60
2018-04-16T01:48:28.708Z,13.60
2018-04-16T01:51:02.475Z,13.60
2018-04-16T01:53:36.265Z,13.60
2018-04-16T01:56:10.152Z,13.60
2018-04-16T01:58:43.971Z,13.50
2018-04-16T02:01:17.721Z,13.50
2018-04-16T02:03:52.232Z,13.50
2018-04-16T02:06:26.139Z,13.50
2018-04-16T02:08:59.936Z,13.40
2018-04-16T02:14:37.558Z,13.40
2018-04-16T02:17:11.490Z,13.40
2018-04-16T02:19:45.973Z,13.30
2018-04-16T02:22:19.831Z,13.30
2018-04-16T02:24:54.349Z,13.30
2018-04-16T02:27:28.903Z,13.30
2018-04-16T02:30:02.665Z,13.30
2018-04-16T02:32:37.177Z,13.30
2018-04-16T02:35:11.086Z,13.20
2018-04-16T02:40:50.246Z,13.20
2018-04-16T02:43:24.881Z,13.20
2018-04-16T02:45:59.593Z,13.20
2018-04-16T02:48:33.389Z,13.20
2018-04-16T02:51:07.107Z,13.10
2018-04-16T02:53:41.639Z,13.10
2018-04-16T02:56:16.121Z,13.00
2018-04-16T02:58:49.868Z,13.00
2018-04-16T03:04:28.137Z,13.00
2018-04-16T03:07:01.982Z,12.90
2018-04-16T03:09:35.763Z,12.90
2018-04-16T03:12:09.535Z,12.80
2018-04-16T03:14:43.276Z,12.80
2018-04-16T03:17:17.139Z,12.80
2018-04-16T03:19:50.965Z,12.70
2018-04-16T03:22:24.859Z,12.70
2018-04-16T03:24:58.781Z,12.70
2018-04-16T03:27:32.659Z,12.60
2018-04-16T03:30:07.156Z,12.50
2018-04-16T03:32:40.997Z,12.50
2018-04-16T03:35:14.771Z,12.50
2018-04-16T03:37:48.620Z,12.50
2018-04-16T03:40:22.359Z,12.40
2018-04-16T03:42:56.206Z,12.40
2018-04-16T03:45:30.677Z,12.30
2018-04-16T03:48:04.505Z,12.30
2018-04-16T03:50:38.279Z,12.20
2018-04-16T03:53:12.021Z,12.20
2018-04-16T03:55:55.036Z,12.20
2018-04-16T03:58:23.230Z,12.10
2018-04-16T04:00:51.341Z,12.10
2018-04-16T04:03:19.497Z,12.00
2018-04-16T04:05:47.635Z,12.00
2018-04-16T04:08:15.756Z,12.00
2018-04-16T04:10:43.882Z,12.00
2018-04-16T04:13:12.014Z,12.00
2018-04-16T04:15:40.128Z,12.00
2018-04-16T04:18:08.241Z,11.90
2018-04-16T04:20:36.404Z,11.90
2018-04-16T04:23:16.414Z,11.90
2018-04-16T04:25:56.461Z,11.90
2018-04-16T04:28:36.503Z,11.80
2018-04-16T04:31:04.626Z,11.80
2018-04-16T04:33:33.529Z,11.70
2018-04-16T04:36:01.650Z,11.70
2018-04-16T04:38:29.863Z,11.70
2018-04-16T04:40:58.763Z,11.70
2018-04-16T04:43:26.922Z,11.60
2018-04-16T04:45:55.836Z,11.60
2018-04-16T04:48:23.961Z,11.60
2018-04-16T04:50:52.102Z,11.60
2018-04-16T04:53:20.274Z,11.60
2018-04-16T04:55:48.396Z,11.60
2018-04-16T04:58:17.328Z,11.60
2018-04-16T05:00:45.448Z,11.60
2018-04-16T05:03:13.598Z,11.70
2018-04-16T05:05:41.717Z,11.70
2018-04-16T05:08:10.604Z,11.70
2018-04-16T05:10:39.493Z,11.70
2018-04-16T05:13:08.505Z,11.80
2018-04-16T05:15:36.621Z,11.80
2018-04-16T05:18:04.756Z,11.80
2018-04-16T05:20:32.890Z,11.90
2018-04-16T05:23:01.367Z,11.90
2018-04-16T05:25:29.573Z,11.90
2018-04-16T05:27:57.700Z,11.90
2018-04-16T05:30:25.842Z,12.00
2018-04-16T05:32:53.957Z,12.00
2018-04-16T05:35:22.113Z,12.10
2018-04-16T05:37:50.213Z,12.10
2018-04-16T05:40:19.113Z,12.30
2018-04-16T05:42:48.017Z,12.30
2018-04-16T05:45:16.927Z,12.40
2018-04-16T05:47:45.042Z,12.30
2018-04-16T05:50:13.253Z,12.40
2018-04-16T05:52:41.381Z,12.50
2018-04-16T05:55:09.549Z,12.50
2018-04-16T05:57:37.682Z,12.60
2018-04-16T06:00:05.803Z,12.60
2018-04-16T06:02:33.989Z,12.60
2018-04-16T06:05:02.105Z,12.70
2018-04-16T06:07:30.221Z,12.80
2018-04-16T06:09:58.384Z,12.80
2018-04-16T06:12:26.637Z,12.80
2018-04-16T06:14:54.809Z,12.90
2018-04-16T06:17:22.992Z,12.90
2018-04-16T06:19:51.145Z,13.00
2018-04-16T06:22:19.298Z,13.10
2018-04-16T06:24:48.181Z,13.20
2018-04-16T06:27:17.107Z,13.30
2018-04-16T06:29:46.118Z,13.40
2018-04-16T06:32:14.212Z,13.30
2018-04-16T06:34:42.431Z,13.40
2018-04-16T06:37:10.545Z,13.50
2018-04-16T06:39:38.773Z,13.50
2018-04-16T06:42:07.677Z,13.70
2018-04-16T06:44:35.846Z,13.70
2018-04-16T06:47:04.039Z,13.80
2018-04-16T06:49:32.194Z,13.90
2018-04-16T06:52:00.394Z,13.90
2018-04-16T06:54:28.506Z,14.00
2018-04-16T06:56:56.710Z,14.00
2018-04-16T06:59:24.836Z,14.00
2018-04-16T07:01:53.102Z,14.10
2018-04-16T07:04:21.264Z,14.10
2018-04-16T07:06:49.410Z,14.10
2018-04-16T07:09:17.544Z,14.10
2018-04-16T07:11:45.667Z,14.20
2018-04-16T07:14:13.806Z,14.20
2018-04-16T07:16:42.696Z,14.20
2018-04-16T07:19:11.590Z,14.20
2018-04-16T07:21:40.476Z,14.20
2018-04-16T07:24:09.377Z,14.20
2018-04-16T07:26:37.501Z,14.20
2018-04-16T07:29:05.659Z,14.10
2018-04-16T07:31:33.765Z,14.10
2018-04-16T07:34:02.687Z,14.20
2018-04-16T07:36:31.686Z,14.20
2018-04-16T07:38:59.885Z,14.20
2018-04-16T07:41:27.977Z,14.10
2018-04-16T07:43:56.234Z,14.10
2018-04-16T07:46:24.338Z,14.10
2018-04-16T07:48:53.982Z,14.10
2018-04-16T07:51:22.875Z,14.20
2018-04-16T07:53:51.758Z,14.30
2018-04-16T07:56:20.656Z,14.40
2018-04-16T07:58:48.782Z,14.40
2018-04-16T08:01:16.902Z,14.40
2018-04-16T08:03:45.085Z,14.50
2018-04-16T08:06:13.278Z,14.60
2018-04-16T08:08:41.378Z,14.70
2018-04-16T08:11:09.497Z,14.80
2018-04-16T08:13:37.623Z,14.90
2018-04-16T08:16:05.916Z,15.00
2018-04-16T08:18:33.998Z,15.00
2018-04-16T08:21:02.871Z,15.20
2018-04-16T08:23:31.043Z,15.10
2018-04-16T08:26:00.776Z,15.20
2018-04-16T08:28:29.664Z,15.30
2018-04-16T08:30:58.615Z,15.30
2018-04-16T08:33:26.731Z,15.30
2018-04-16T08:35:55.659Z,15.30
2018-04-16T08:38:23.786Z,15.30
2018-04-16T08:40:51.980Z,15.30
2018-04-16T08:43:20.975Z,15.20
2018-04-16T08:45:49.894Z,15.20
2018-04-16T08:48:18.070Z,15.20
2018-04-16T08:50:46.170Z,15.20
2018-04-16T08:53:15.114Z,15.20
2018-04-16T08:55:43.242Z,15.20
2018-04-16T08:58:12.122Z,15.30
2018-04-16T09:00:40.284Z,15.30
2018-04-16T09:03:08.421Z,15.40
2018-04-16T09:05:36.580Z,15.60
2018-04-16T09:08:05.454Z,15.80
2018-04-16T09:10:33.620Z,15.80
2018-04-16T09:13:01.822Z,16.00
2018-04-16T09:15:29.993Z,16.20
2018-04-16T09:17:58.901Z,16.40
2018-04-16T09:20:27.050Z,16.40
2018-04-16T09:22:55.944Z,16.50
2018-04-16T09:25:24.823Z,16.60
2018-04-16T09:27:53.716Z,16.60
2018-04-16T09:30:22.621Z,16.70
2018-04-16T09:32:51.485Z,16.80
2018-04-16T09:35:19.690Z,16.90
2018-04-16T09:37:48.683Z,17.20
2018-04-16T09:40:16.805Z,17.20
2018-04-16T09:42:44.933Z,17.30
2018-04-16T09:45:13.143Z,17.50
2018-04-16T09:47:41.307Z,17.60
2018-04-16T09:50:09.407Z,17.70
2018-04-16T09:52:37.535Z,17.90
2018-04-16T09:55:05.694Z,18.00
2018-04-16T09:57:34.611Z,18.20
2018-04-16T10:00:02.724Z,18.20
2018-04-16T10:02:30.844Z,18.30
2018-04-16T10:04:58.984Z,18.30
2018-04-16T10:07:27.276Z,18.40
2018-04-16T10:09:56.170Z,18.30
2018-04-16T10:12:25.056Z,18.20
2018-04-16T10:14:53.989Z,18.20
2018-04-16T10:17:22.132Z,18.20
2018-04-16T10:19:51.045Z,18.20
2018-04-16T10:22:19.161Z,18.20
2018-04-16T10:24:47.309Z,18.20
2018-04-16T10:27:15.455Z,18.10
2018-04-16T10:29:43.573Z,18.10
2018-04-16T10:32:12.461Z,18.00
2018-04-16T10:34:40.703Z,18.00
2018-04-16T10:37:08.816Z,18.00
2018-04-16T10:39:37.035Z,18.00
2018-04-16T10:42:05.189Z,18.00
2018-04-16T10:44:34.114Z,17.90
2018-04-16T10:47:02.248Z,17.90
2018-04-16T10:49:31.133Z,18.00
2018-04-16T10:52:00.051Z,18.00
2018-04-16T10:54:28.178Z,18.00
2018-04-16T10:56:57.848Z,18.20
2018-04-16T10:59:26.006Z,18.20
2018-04-16T11:01:54.370Z,18.30
2018-04-16T11:04:23.293Z,18.50
2018-04-16T11:06:51.526Z,18.50
2018-04-16T11:09:19.646Z,18.60
2018-04-16T11:11:47.774Z,18.70
2018-04-16T11:14:16.706Z,19.00
2018-04-16T11:16:44.830Z,19.00
2018-04-16T11:19:13.858Z,19.20
2018-04-16T11:21:42.711Z,19.30
2018-04-16T11:24:11.604Z,19.30
2018-04-16T11:26:39.828Z,19.30
2018-04-16T11:29:08.004Z,19.30
2018-04-16T11:31:36.109Z,19.30
2018-04-16T11:34:05.042Z,19.20
2018-04-16T11:36:33.145Z,19.20
2018-04-16T11:39:01.266Z,19.20
2018-04-16T11:41:30.184Z,19.10
2018-04-16T11:43:58.306Z,19.10
2018-04-16T11:46:26.513Z,19.00
2018-04-16T11:48:55.449Z,18.90
2018-04-16T11:51:23.566Z,18.80
2018-04-16T11:53:52.445Z,18.90
2018-04-16T11:56:20.609Z,18.90
2018-04-16T11:58:50.368Z,18.90
2018-04-16T12:01:18.485Z,18.90
2018-04-16T12:03:46.631Z,18.90
2018-04-16T12:06:14.765Z,18.90
2018-04-16T12:08:42.877Z,18.90
2018-04-16T12:11:10.999Z,18.90
2018-04-16T12:13:39.137Z,19.00
2018-04-16T12:16:07.266Z,19.10
2018-04-16T12:18:36.171Z,19.20
2018-04-16T12:21:04.339Z,19.10
2018-04-16T12:23:33.210Z,19.10
2018-04-16T12:26:02.110Z,19.10
2018-04-16T12:28:31.109Z,19.10
2018-04-16T12:30:59.245Z,19.10
2018-04-16T12:33:27.390Z,19.20
2018-04-16T12:35:55.505Z,19.20
2018-04-16T12:38:24.489Z,19.20
2018-04-16T12:40:52.606Z,19.20
2018-04-16T12:43:20.741Z,19.20
2018-04-16T12:45:48.864Z,19.30
2018-04-16T12:48:17.044Z,19.40
2018-04-16T12:50:45.137Z,19.50
2018-04-16T12:53:13.249Z,19.60
2018-04-16T12:55:42.168Z,19.80
2018-04-16T12:58:10.289Z,19.70
2018-04-16T13:00:39.170Z,20.00
2018-04-16T13:03:07.315Z,19.90
2018-04-16T13:05:36.193Z,20.00
2018-04-16T13:08:04.310Z,20.00
2018-04-16T13:10:32.487Z,20.00
2018-04-16T13:13:01.375Z,20.00
2018-04-16T13:15:29.509Z,20.00
2018-04-16T13:17:57.635Z,20.00
2018-04-16T13:20:25.830Z,19.90
2018-04-16T13:22:54.715Z,19.90
2018-04-16T13:25:23.593Z,19.80
2018-04-16T13:27:52.489Z,19.80
2018-04-16T13:30:21.397Z,19.90
2018-04-16T13:32:49.553Z,19.90
2018-04-16T13:35:18.500Z,20.00
2018-04-16T13:37:46.597Z,19.90
2018-04-16T13:40:14.740Z,20.00
2018-04-16T13:42:42.855Z,20.00
2018-04-16T13:45:11.731Z,20.00
2018-04-16T13:47:39.846Z,20.00
2018-04-16T13:50:08.014Z,19.90
2018-04-16T13:52:36.932Z,19.90
2018-04-16T13:55:05.019Z,19.90
2018-04-16T13:57:33.182Z,19.80
2018-04-16T14:00:01.316Z,19.80
2018-04-16T14:02:30.190Z,19.70
2018-04-16T14:04:58.310Z,19.70
2018-04-16T14:07:26.412Z,19.70
2018-04-16T14:09:56.069Z,19.80
2018-04-16T14:12:24.211Z,19.80
2018-04-16T14:14:52.327Z,19.70
2018-04-16T14:17:20.489Z,19.70
2018-04-16T14:19:48.608Z,19.60
2018-04-16T14:22:16.726Z,19.50
2018-04-16T14:24:44.866Z,19.50
2018-04-16T14:27:13.002Z,19.50
2018-04-16T14:29:41.157Z,19.60
2018-04-16T14:32:09.351Z,19.70
2018-04-16T14:34:37.492Z,19.80
2018-04-16T14:37:06.356Z,20.10
2018-04-16T14:39:36.012Z,20.30
2018-04-16T14:42:04.117Z,20.30
2018-04-16T14:44:32.234Z,20.40
2018-04-16T14:47:01.166Z,20.60
2018-04-16T14:49:29.314Z,20.60
2018-04-16T14:51:57.572Z,20.60
2018-04-16T14:54:26.453Z,20.60
2018-04-16T14:56:54.589Z,20.60
2018-04-16T14:59:22.837Z,20.60
2018-04-16T15:01:50.977Z,20.60
2018-04-16T15:04:19.846Z,20.60
2018-04-16T15:06:47.997Z,20.60
2018-04-16T15:09:16.509Z,20.50
2018-04-16T15:11:44.635Z,20.50
2018-04-16T15:14:12.748Z,20.50
2018-04-16T15:16:40.870Z,20.40
2018-04-16T15:19:09.061Z,20.40
2018-04-16T15:21:37.290Z,20.40
2018-04-16T15:24:05.337Z,20.50
2018-04-16T15:26:33.445Z,20.40
2018-04-16T15:29:02.374Z,20.40
2018-04-16T15:31:30.505Z,20.40
2018-04-16T15:33:59.407Z,20.40
2018-04-16T15:36:28.279Z,20.30
2018-04-16T15:38:57.187Z,20.30
2018-04-16T15:41:25.356Z,20.20
2018-04-16T15:43:54.260Z,20.00
2018-04-16T15:46:22.374Z,20.00
2018-04-16T15:48:50.533Z,20.00
2018-04-16T15:51:18.629Z,19.90
2018-04-16T15:53:48.262Z,20.00
2018-04-16T15:56:17.147Z,20.00
2018-04-16T15:58:45.259Z,20.00
2018-04-16T16:01:13.397Z,20.00
2018-04-16T16:03:42.280Z,20.10
2018-04-16T16:06:10.393Z,20.10
2018-04-16T16:08:38.519Z,20.10
2018-04-16T16:11:06.676Z,20.20
2018-04-16T16:13:34.825Z,20.30
2018-04-16T16:16:02.922Z,20.40
2018-04-16T16:18:31.041Z,20.30
2018-04-16T16:20:59.176Z,20.20
2018-04-16T16:23:27.392Z,20.10
2018-04-16T16:25:55.527Z,20.10
2018-04-16T16:28:23.658Z,20.00
2018-04-16T16:30:51.806Z,20.10
2018-04-16T16:33:21.544Z,20.00
2018-04-16T16:35:49.642Z,19.90
2018-04-16T16:38:17.822Z,19.90
2018-04-16T16:40:45.959Z,19.80
2018-04-16T16:43:14.062Z,19.80
2018-04-16T16:45:42.300Z,19.80
2018-04-16T16:48:10.414Z,19.90
2018-04-16T16:50:38.661Z,20.00
2018-04-16T16:53:06.765Z,20.10
2018-04-16T16:55:34.882Z,20.10
2018-04-16T16:58:03.871Z,20.20
2018-04-16T17:00:32.883Z,20.20
2018-04-16T17:03:00.994Z,20.20
2018-04-16T17:05:30.631Z,20.10
2018-04-16T17:07:59.588Z,20.00
2018-04-16T17:10:27.701Z,20.00
2018-04-16T17:12:56.604Z,20.00
2018-04-16T17:15:25.517Z,19.90
2018-04-16T17:17:53.675Z,19.90
2018-04-16T17:20:21.793Z,19.90
2018-04-16T17:22:50.028Z,19.90
2018-04-16T17:25:18.207Z,19.90
2018-04-16T17:27:46.319Z,19.80
2018-04-16T17:30:14.584Z,19.80
2018-04-16T17:32:42.663Z,19.70
2018-04-16T17:35:10.875Z,19.70
2018-04-16T17:37:39.901Z,19.70
2018-04-16T17:40:08.007Z,19.60
2018-04-16T17:42:36.135Z,19.60
2018-04-16T17:45:04.279Z,19.70
2018-04-16T17:47:33.153Z,19.60
2018-04-16T17:50:01.387Z,19.60
2018-04-16T17:52:29.500Z,19.60
2018-04-16T17:54:57.636Z,19.60
2018-04-16T17:57:25.765Z,19.50
2018-04-16T17:59:54.695Z,19.50
2018-04-16T18:02:22.814Z,19.50
2018-04-16T18:04:50.921Z,19.40
2018-04-16T18:07:19.181Z,19.40
2018-04-16T18:09:48.121Z,19.20
2018-04-16T18:12:16.240Z,19.20
2018-04-16T18:14:45.142Z,19.10
2018-04-16T18:17:14.045Z,18.90
2018-04-16T18:19:42.197Z,18.90
2018-04-16T18:22:11.086Z,18.70
2018-04-16T18:24:40.358Z,18.60
2018-04-16T18:27:08.446Z,18.60
2018-04-16T18:29:36.610Z,18.50
2018-04-16T18:32:04.785Z,18.40
2018-04-16T18:34:33.003Z,18.30
2018-04-16T18:37:01.122Z,18.30
2018-04-16T18:39:29.229Z,18.10
2018-04-16T18:41:58.143Z,17.90
2018-04-16T18:44:26.334Z,17.90
2018-04-16T18:46:54.449Z,17.90
2018-04-16T18:49:22.625Z,17.80
2018-04-16T18:51:50.742Z,17.60
2018-04-16T18:54:18.855Z,17.50
2018-04-16T18:56:46.977Z,17.40
2018-04-16T18:59:15.149Z,17.20
2018-04-16T19:01:43.295Z,17.10
2018-04-16T19:04:11.406Z,17.00
2018-04-16T19:06:39.529Z,16.90
2018-04-16T19:09:07.663Z,16.80
2018-04-16T19:11:35.849Z,16.70
2018-04-16T19:14:03.957Z,16.60
2018-04-16T19:16:32.855Z,16.40
2018-04-16T19:19:01.762Z,16.40
2018-04-16T19:21:35.586Z,16.30
2018-04-16T19:24:03.743Z,16.30
2018-04-16T19:26:32.020Z,16.10
2018-04-16T19:29:00.234Z,16.00
2018-04-16T19:31:28.361Z,16.00
2018-04-16T19:34:02.373Z,15.90
2018-04-16T19:36:30.555Z,15.80
2018-04-16T19:38:58.669Z,15.70
2018-04-16T19:41:26.793Z,15.60
2018-04-16T19:43:54.934Z,15.60
2018-04-16T19:46:24.573Z,15.40
2018-04-16T19:48:58.507Z,15.40
2018-04-16T19:51:26.599Z,15.30
2018-04-16T19:53:54.748Z,15.20
2018-04-16T19:56:28.442Z,15.20
2018-04-16T19:58:56.612Z,15.10
2018-04-16T20:01:24.730Z,15.10
2018-04-16T20:03:58.601Z,15.00
2018-04-16T20:06:26.715Z,14.90
2018-04-16T20:08:56.349Z,14.80
2018-04-16T20:11:25.360Z,14.80
2018-04-16T20:16:22.732Z,14.70
2018-04-16T20:18:51.609Z,14.70
2018-04-16T20:21:20.482Z,14.60
2018-04-16T20:23:48.615Z,14.60
2018-04-16T20:26:16.726Z,14.60
2018-04-16T20:28:50.359Z,14.50
2018-04-16T20:31:18.488Z,14.50
2018-04-16T20:33:46.704Z,14.40
2018-04-16T20:36:15.580Z,14.30
2018-04-16T20:38:44.470Z,14.30
2018-04-16T20:41:13.378Z,14.30
2018-04-16T20:43:42.286Z,14.20
2018-04-16T20:46:10.454Z,14.20
2018-04-16T20:48:38.567Z,14.20
2018-04-16T20:51:06.705Z,14.10
2018-04-16T20:53:34.846Z,14.10
2018-04-16T20:56:03.748Z,14.00
2018-04-16T20:58:32.650Z,13.90
2018-04-16T21:01:00.806Z,13.90
2018-04-16T21:03:29.699Z,13.90
2018-04-16T21:05:58.614Z,13.80
2018-04-16T21:08:26.750Z,13.80
2018-04-16T21:10:54.870Z,13.80
2018-04-16T21:13:23.017Z,13.70
2018-04-16T21:15:51.137Z,13.70
2018-04-16T21:18:19.289Z,13.60
2018-04-16T21:20:47.495Z,13.60
2018-04-16T21:23:15.586Z,13.60
2018-04-16T21:25:44.469Z,13.50
2018-04-16T21:28:12.619Z,13.50
2018-04-16T21:30:40.746Z,13.40
2018-04-16T21:33:08.901Z,13.40
2018-04-16T21:35:37.015Z,13.40
2018-04-16T21:38:05.129Z,13.30
2018-04-16T21:40:33.277Z,13.30
2018-04-16T21:43:01.413Z,13.20
2018-04-16T21:45:30.307Z,13.10
2018-04-16T21:47:58.519Z,13.10
2018-04-16T21:50:26.875Z,13.10
2018-04-16T21:52:55.026Z,13.10
2018-04-16T21:55:23.199Z,13.00
2018-04-16T21:57:51.373Z,13.00
2018-04-16T22:00:19.613Z,12.90
2018-04-16T22:02:47.803Z,12.90
2018-04-16T22:05:16.738Z,12.80
2018-04-16T22:07:44.889Z,12.80
2018-04-16T22:10:13.059Z,12.80
2018-04-16T22:12:41.224Z,12.70
2018-04-16T22:15:09.362Z,12.70
2018-04-16T22:17:38.996Z,12.60
2018-04-16T22:20:07.882Z,12.60
2018-04-16T22:22:36.772Z,12.60
2018-04-16T22:25:04.892Z,12.50
2018-04-16T22:27:33.034Z,12.50
2018-04-16T22:30:01.923Z,12.50
2018-04-16T22:32:30.858Z,12.40
2018-04-16T22:34:59.016Z,12.40
2018-04-16T22:37:27.126Z,12.40
2018-04-16T22:39:55.356Z,12.40
2018-04-16T22:42:23.491Z,12.30
2018-04-16T22:44:52.394Z,12.30
2018-04-16T22:47:21.321Z,12.20
2018-04-16T22:49:49.449Z,12.20
2018-04-16T22:52:18.369Z,12.20
2018-04-16T22:54:46.521Z,12.20
2018-04-16T22:57:15.430Z,12.10
2018-04-16T22:59:43.559Z,12.10
2018-04-16T23:02:11.687Z,12.10
2018-04-16T23:04:39.807Z,12.00
2018-04-16T23:07:09.429Z,11.90
2018-04-16T23:09:38.325Z,11.90
2018-04-16T23:12:07.363Z,11.90
2018-04-16T23:14:35.515Z,11.90
2018-04-16T23:17:03.641Z,11.90
2018-04-16T23:19:31.849Z,11.90
2018-04-16T23:21:59.971Z,11.80
2018-04-16T23:24:28.116Z,11.80
2018-04-16T23:26:56.271Z,11.70
2018-04-16T23:29:24.399Z,11.70
2018-04-16T23:31:52.515Z,11.70
2018-04-16T23:34:20.643Z,11.70
2018-04-16T23:36:48.770Z,11.60
2018-04-16T23:39:16.897Z,11.60
2018-04-16T23:41:45.123Z,11.60
2018-04-16T23:44:13.237Z,11.50
2018-04-16T23:46:41.372Z,11.50
2018-04-16T23:49:09.502Z,11.50
2018-04-16T23:51:39.114Z,11.40
2018-04-16T23:54:08.035Z,11.40
2018-04-16T23:56:36.161Z,11.40
2018-04-16T23:59:04.279Z,11.30
